GB-0031 weather

Middle Pymore Farm Airstrip (Private)
Pymore Bridport, England, United Kingdom

Public forecast

Using degrees Celsius for public forecast. Weather courtesy of forecast.io.

METAR (pilot weather report)

Closest report is RNAS Yeovilton, 16.2 nm (29.9 km) NNE. Retrieved 2019/07/19 00:20 UTC (21 minutes ago):

EGDY 190020Z 13004KT 9999 FEW032 BKN200 11/09 Q1013 NOSIG RMK BLU BLU

TAF (pilot weather forecast)

Forecast is more than 12 hours old.

Closest forecast is RNAS Yeovilton, 16.2 nm (29.9 km) NNE. Retrieved 2019/05/01 18:06 UTC (3 months ago):

TAF TAF EGDY 010100Z 3018/0103 CNL